Richmond, Canada
Current Conditions -  °F | °C
As of 7:52 AM on Friday 19 Dec 2014 (Local Time) from CYVR Reporting Station
Moderate Rain Moderate Rain  
Wind Chill: 38°   Ceiling: 4500
Heat Index: 45°   Visibility: 15mi
Dew Point: 41°   Wind: 14mph
Humidity: 87%   Direction: 160°SSE
Pressure: 29.82"   Gusts: 21mph
Location:  49.17°N, 122.97°W
Report Text: CYVR 191552Z 16012G18KT 15SM RA FEW005 SCT023 BKN045 OVC080 07/05 A2982 RMK SF1SC3SC3AC1 VIS N 8SM SLP098
Loading
Personal Weather Stations






























Interactive Weather Map New forecast layout! Learn more

10-Day Weather Forecast

Advertisements
Track Severe Weather on mobile